sensor_id;sensor_type;location;lat;lon;timestamp;pressure;altitude;pressure_sealevel;temperature;humidity
8160;BME280;27404;52.398;9.646;2024-02-21T00:00:01;101413.91;;;7.04;100.00
8160;BME280;27404;52.398;9.646;2024-02-21T00:02:27;101418.22;;;6.98;100.00
8160;BME280;27404;52.398;9.646;2024-02-21T00:04:52;101411.19;;;7.04;100.00
8160;BME280;27404;52.398;9.646;2024-02-21T00:07:18;101413.50;;;7.07;100.00
8160;BME280;27404;52.398;9.646;2024-02-21T00:09:43;101411.63;;;7.07;100.00
8160;BME280;27404;52.398;9.646;2024-02-21T00:12:09;101405.09;;;7.02;100.00
8160;BME280;27404;52.398;9.646;2024-02-21T00:14:34;101397.19;;;7.07;100.00
8160;BME280;27404;52.398;9.646;2024-02-21T00:16:59;101402.81;;;7.05;100.00
8160;BME280;27404;52.398;9.646;2024-02-21T00:19:25;101397.38;;;7.05;100.00
8160;BME280;27404;52.398;9.646;2024-02-21T00:21:50;101399.91;;;7.07;100.00
8160;BME280;27404;52.398;9.646;2024-02-21T00:24:16;101387.34;;;7.06;100.00
8160;BME280;27404;52.398;9.646;2024-02-21T00:26:41;101391.94;;;7.05;100.00
8160;BME280;27404;52.398;9.646;2024-02-21T00:29:07;101389.88;;;7.07;100.00
8160;BME280;27404;52.398;9.646;2024-02-21T00:31:32;101390.72;;;7.08;100.00
8160;BME280;27404;52.398;9.646;2024-02-21T00:33:58;101377.78;;;7.10;100.00
8160;BME280;27404;52.398;9.646;2024-02-21T00:36:23;101374.84;;;7.11;100.00
8160;BME280;27404;52.398;9.646;2024-02-21T00:38:49;101368.75;;;7.09;100.00
8160;BME280;27404;52.398;9.646;2024-02-21T00:41:14;101365.66;;;7.13;100.00
8160;BME280;27404;52.398;9.646;2024-02-21T00:43:41;101364.19;;;7.10;100.00
8160;BME280;27404;52.398;9.646;2024-02-21T00:46:06;101353.34;;;7.17;100.00
8160;BME280;27404;52.398;9.646;2024-02-21T00:48:32;101352.91;;;7.13;100.00
8160;BME280;27404;52.398;9.646;2024-02-21T00:50:59;101348.06;;;7.08;100.00
8160;BME280;27404;52.398;9.646;2024-02-21T00:53:24;101341.78;;;7.08;100.00
8160;BME280;27404;52.398;9.646;2024-02-21T00:55:49;101336.78;;;7.11;100.00
8160;BME280;27404;52.398;9.646;2024-02-21T00:58:15;101337.38;;;7.07;100.00
8160;BME280;27404;52.398;9.646;2024-02-21T01:00:40;101328.38;;;7.06;100.00
8160;BME280;27404;52.398;9.646;2024-02-21T01:03:06;101333.38;;;7.03;100.00
8160;BME280;27404;52.398;9.646;2024-02-21T01:05:31;101327.53;;;7.06;100.00
8160;BME280;27404;52.398;9.646;2024-02-21T01:07:57;101326.78;;;7.12;100.00
8160;BME280;27404;52.398;9.646;2024-02-21T01:10:22;101332.38;;;7.10;100.00
8160;BME280;27404;52.398;9.646;2024-02-21T01:12:48;101320.47;;;7.11;100.00
8160;BME280;27404;52.398;9.646;2024-02-21T01:15:13;101309.59;;;7.11;100.00
8160;BME280;27404;52.398;9.646;2024-02-21T01:17:38;101316.97;;;7.18;100.00
8160;BME280;27404;52.398;9.646;2024-02-21T01:20:06;101314.47;;;7.16;100.00
8160;BME280;27404;52.398;9.646;2024-02-21T01:22:32;101315.44;;;7.08;100.00
8160;BME280;27404;52.398;9.646;2024-02-21T01:24:58;101317.38;;;7.15;100.00
8160;BME280;27404;52.398;9.646;2024-02-21T01:27:23;101308.38;;;7.14;100.00
8160;BME280;27404;52.398;9.646;2024-02-21T01:29:48;101306.31;;;7.16;100.00
8160;BME280;27404;52.398;9.646;2024-02-21T01:32:15;101306.69;;;7.13;100.00
8160;BME280;27404;52.398;9.646;2024-02-21T01:34:41;101312.13;;;7.13;100.00
8160;BME280;27404;52.398;9.646;2024-02-21T01:37:06;101306.94;;;7.18;100.00
8160;BME280;27404;52.398;9.646;2024-02-21T01:39:33;101304.25;;;7.18;100.00
8160;BME280;27404;52.398;9.646;2024-02-21T01:41:59;101298.53;;;7.13;100.00
8160;BME280;27404;52.398;9.646;2024-02-21T01:44:24;101296.91;;;7.19;100.00
8160;BME280;27404;52.398;9.646;2024-02-21T01:46:50;101298.41;;;7.21;100.00
8160;BME280;27404;52.398;9.646;2024-02-21T01:49:17;101292.75;;;7.23;100.00
8160;BME280;27404;52.398;9.646;2024-02-21T01:51:42;101290.44;;;7.20;100.00
8160;BME280;27404;52.398;9.646;2024-02-21T01:54:08;101285.00;;;7.20;100.00
8160;BME280;27404;52.398;9.646;2024-02-21T01:56:35;101286.25;;;7.17;100.00
8160;BME280;27404;52.398;9.646;2024-02-21T01:59:01;101282.28;;;7.20;100.00
8160;BME280;27404;52.398;9.646;2024-02-21T02:01:26;101276.44;;;7.23;100.00
8160;BME280;27404;52.398;9.646;2024-02-21T02:03:52;101280.44;;;7.27;100.00
8160;BME280;27404;52.398;9.646;2024-02-21T02:06:18;101273.72;;;7.23;100.00
8160;BME280;27404;52.398;9.646;2024-02-21T02:08:43;101276.91;;;7.26;100.00
8160;BME280;27404;52.398;9.646;2024-02-21T02:11:09;101266.41;;;7.23;100.00
8160;BME280;27404;52.398;9.646;2024-02-21T02:13:35;101268.50;;;7.21;100.00
8160;BME280;27404;52.398;9.646;2024-02-21T02:16:00;101259.09;;;7.24;100.00
8160;BME280;27404;52.398;9.646;2024-02-21T02:18:26;101258.69;;;7.27;100.00
8160;BME280;27404;52.398;9.646;2024-02-21T02:20:52;101250.53;;;7.27;100.00
8160;BME280;27404;52.398;9.646;2024-02-21T02:23:30;101243.00;;;7.29;100.00
8160;BME280;27404;52.398;9.646;2024-02-21T02:25:59;101240.06;;;7.31;100.00
8160;BME280;27404;52.398;9.646;2024-02-21T02:28:26;101238.22;;;7.31;100.00
8160;BME280;27404;52.398;9.646;2024-02-21T02:30:52;101229.81;;;7.26;100.00
8160;BME280;27404;52.398;9.646;2024-02-21T02:33:18;101223.09;;;7.22;100.00
8160;BME280;27404;52.398;9.646;2024-02-21T02:35:43;101227.09;;;7.26;100.00
8160;BME280;27404;52.398;9.646;2024-02-21T02:38:09;101218.25;;;7.17;100.00
8160;BME280;27404;52.398;9.646;2024-02-21T02:40:38;101216.63;;;7.23;100.00
8160;BME280;27404;52.398;9.646;2024-02-21T02:43:03;101207.88;;;7.28;100.00
8160;BME280;27404;52.398;9.646;2024-02-21T02:45:29;101212.03;;;7.23;100.00
8160;BME280;27404;52.398;9.646;2024-02-21T02:47:55;101204.53;;;7.32;100.00
8160;BME280;27404;52.398;9.646;2024-02-21T02:50:25;101204.13;;;7.29;100.00
8160;BME280;27404;52.398;9.646;2024-02-21T02:52:51;101200.53;;;7.28;100.00
8160;BME280;27404;52.398;9.646;2024-02-21T02:55:16;101195.97;;;7.29;100.00
8160;BME280;27404;52.398;9.646;2024-02-21T02:57:43;101184.22;;;7.28;100.00
8160;BME280;27404;52.398;9.646;2024-02-21T03:00:10;101178.78;;;7.28;100.00
8160;BME280;27404;52.398;9.646;2024-02-21T03:02:38;101178.78;;;7.28;100.00
8160;BME280;27404;52.398;9.646;2024-02-21T03:05:12;101169.81;;;7.28;100.00
8160;BME280;27404;52.398;9.646;2024-02-21T03:07:38;101171.69;;;7.34;100.00
8160;BME280;27404;52.398;9.646;2024-02-21T03:10:04;101150.16;;;7.32;100.00
8160;BME280;27404;52.398;9.646;2024-02-21T03:12:30;101145.59;;;7.39;100.00
8160;BME280;27404;52.398;9.646;2024-02-21T03:14:55;101135.28;;;7.35;100.00
8160;BME280;27404;52.398;9.646;2024-02-21T03:17:21;101120.41;;;7.31;100.00
8160;BME280;27404;52.398;9.646;2024-02-21T03:19:46;101111.22;;;7.32;100.00
8160;BME280;27404;52.398;9.646;2024-02-21T03:22:13;101106.63;;;7.32;100.00
8160;BME280;27404;52.398;9.646;2024-02-21T03:24:39;101099.91;;;7.28;100.00
8160;BME280;27404;52.398;9.646;2024-02-21T03:27:04;101100.97;;;7.34;100.00
8160;BME280;27404;52.398;9.646;2024-02-21T03:29:30;101112.31;;;7.37;100.00
8160;BME280;27404;52.398;9.646;2024-02-21T03:31:55;101105.19;;;7.36;100.00
8160;BME280;27404;52.398;9.646;2024-02-21T03:34:20;101098.06;;;7.35;100.00
8160;BME280;27404;52.398;9.646;2024-02-21T03:36:46;101104.56;;;7.34;100.00
8160;BME280;27404;52.398;9.646;2024-02-21T03:39:11;101085.91;;;7.31;100.00
8160;BME280;27404;52.398;9.646;2024-02-21T03:41:37;101085.69;;;7.33;100.00
8160;BME280;27404;52.398;9.646;2024-02-21T03:44:02;101090.72;;;7.36;100.00
8160;BME280;27404;52.398;9.646;2024-02-21T03:46:28;101095.13;;;7.37;100.00
8160;BME280;27404;52.398;9.646;2024-02-21T03:48:53;101089.69;;;7.30;100.00
8160;BME280;27404;52.398;9.646;2024-02-21T03:51:19;101089.66;;;7.23;100.00
8160;BME280;27404;52.398;9.646;2024-02-21T03:53:44;101098.06;;;7.29;100.00
8160;BME280;27404;52.398;9.646;2024-02-21T03:56:10;101110.59;;;7.30;100.00
8160;BME280;27404;52.398;9.646;2024-02-21T03:58:35;101114.38;;;7.29;100.00
8160;BME280;27404;52.398;9.646;2024-02-21T04:01:01;101108.50;;;7.32;100.00
8160;BME280;27404;52.398;9.646;2024-02-21T04:03:27;101124.00;;;7.31;100.00
8160;BME280;27404;52.398;9.646;2024-02-21T04:05:52;101131.72;;;7.28;100.00
8160;BME280;27404;52.398;9.646;2024-02-21T04:08:18;101131.50;;;7.29;100.00
8160;BME280;27404;52.398;9.646;2024-02-21T04:10:43;101138.88;;;7.35;100.00
8160;BME280;27404;52.398;9.646;2024-02-21T04:13:09;101153.09;;;7.37;100.00
8160;BME280;27404;52.398;9.646;2024-02-21T04:15:35;101152.47;;;7.35;100.00
8160;BME280;27404;52.398;9.646;2024-02-21T04:18:01;101148.47;;;7.31;100.00
8160;BME280;27404;52.398;9.646;2024-02-21T04:20:26;101144.72;;;7.32;100.00
8160;BME280;27404;52.398;9.646;2024-02-21T04:22:52;101126.94;;;7.36;100.00
8160;BME280;27404;52.398;9.646;2024-02-21T04:25:17;101133.84;;;7.39;100.00
8160;BME280;27404;52.398;9.646;2024-02-21T04:27:43;101135.28;;;7.35;100.00
8160;BME280;27404;52.398;9.646;2024-02-21T04:30:09;101139.28;;;7.32;100.00
8160;BME280;27404;52.398;9.646;2024-02-21T04:32:35;101144.06;;;7.30;100.00
8160;BME280;27404;52.398;9.646;2024-02-21T04:35:00;101130.88;;;7.27;100.00
8160;BME280;27404;52.398;9.646;2024-02-21T04:37:25;101136.56;;;7.32;100.00
8160;BME280;27404;52.398;9.646;2024-02-21T04:39:51;101141.59;;;7.35;100.00
8160;BME280;27404;52.398;9.646;2024-02-21T04:42:17;101135.06;;;7.30;100.00
8160;BME280;27404;52.398;9.646;2024-02-21T04:44:42;101131.75;;;7.34;100.00
8160;BME280;27404;52.398;9.646;2024-02-21T04:47:08;101129.44;;;7.31;100.00
8160;BME280;27404;52.398;9.646;2024-02-21T04:49:34;101134.47;;;7.34;100.00
8160;BME280;27404;52.398;9.646;2024-02-21T04:52:00;101130.72;;;7.35;100.00
8160;BME280;27404;52.398;9.646;2024-02-21T04:54:26;101139.06;;;7.34;100.00
8160;BME280;27404;52.398;9.646;2024-02-21T04:56:51;101129.22;;;7.33;100.00
8160;BME280;27404;52.398;9.646;2024-02-21T04:59:17;101129.44;;;7.31;100.00
8160;BME280;27404;52.398;9.646;2024-02-21T05:01:42;101131.28;;;7.31;100.00
8160;BME280;27404;52.398;9.646;2024-02-21T05:04:08;101134.25;;;7.36;100.00
8160;BME280;27404;52.398;9.646;2024-02-21T05:06:40;101125.69;;;7.39;100.00
8160;BME280;27404;52.398;9.646;2024-02-21T05:09:07;101122.34;;;7.37;100.00
8160;BME280;27404;52.398;9.646;2024-02-21T05:11:34;101120.00;;;7.34;100.00
8160;BME280;27404;52.398;9.646;2024-02-21T05:13:59;101113.75;;;7.33;100.00
8160;BME280;27404;52.398;9.646;2024-02-21T05:16:25;101109.75;;;7.29;100.00
8160;BME280;27404;52.398;9.646;2024-02-21T05:18:50;101120.41;;;7.31;100.00
8160;BME280;27404;52.398;9.646;2024-02-21T05:21:16;101118.16;;;7.34;100.00
8160;BME280;27404;52.398;9.646;2024-02-21T05:23:41;101108.94;;;7.35;100.00
8160;BME280;27404;52.398;9.646;2024-02-21T05:26:07;101118.34;;;7.33;100.00
8160;BME280;27404;52.398;9.646;2024-02-21T05:28:32;101111.22;;;7.32;100.00
8160;BME280;27404;52.398;9.646;2024-02-21T05:30:58;101105.13;;;7.30;100.00
8160;BME280;27404;52.398;9.646;2024-02-21T05:33:24;101110.78;;;7.28;100.00
8160;BME280;27404;52.398;9.646;2024-02-21T05:35:50;101110.56;;;7.23;100.00
8160;BME280;27404;52.398;9.646;2024-02-21T05:38:15;101114.31;;;7.22;100.00
8160;BME280;27404;52.398;9.646;2024-02-21T05:40:41;101101.59;;;7.22;100.00
8160;BME280;27404;52.398;9.646;2024-02-21T05:43:07;101112.25;;;7.31;100.00
8160;BME280;27404;52.398;9.646;2024-02-21T05:45:33;101116.63;;;7.25;100.00
8160;BME280;27404;52.398;9.646;2024-02-21T05:47:58;101120.22;;;7.32;100.00
8160;BME280;27404;52.398;9.646;2024-02-21T05:50:24;101103.25;;;7.23;100.00
8160;BME280;27404;52.398;9.646;2024-02-21T05:52:53;101109.75;;;7.22;100.00
8160;BME280;27404;52.398;9.646;2024-02-21T05:55:19;101096.13;;;7.22;100.00
8160;BME280;27404;52.398;9.646;2024-02-21T05:57:44;101100.31;;;7.18;100.00
8160;BME280;27404;52.398;9.646;2024-02-21T06:00:10;101104.47;;;7.14;100.00
8160;BME280;27404;52.398;9.646;2024-02-21T06:02:36;101101.75;;;7.14;100.00
8160;BME280;27404;52.398;9.646;2024-02-21T06:05:01;101102.56;;;7.15;100.00
8160;BME280;27404;52.398;9.646;2024-02-21T06:07:27;101104.25;;;7.16;100.00
8160;BME280;27404;52.398;9.646;2024-02-21T06:09:52;101097.59;;;7.18;100.00
8160;BME280;27404;52.398;9.646;2024-02-21T06:12:18;101090.25;;;7.19;100.00
8160;BME280;27404;52.398;9.646;2024-02-21T06:14:43;101091.53;;;7.23;100.00
8160;BME280;27404;52.398;9.646;2024-02-21T06:17:08;101092.72;;;7.14;100.00
8160;BME280;27404;52.398;9.646;2024-02-21T06:19:34;101082.31;;;7.17;100.00
8160;BME280;27404;52.398;9.646;2024-02-21T06:21:59;101085.22;;;7.16;100.00
8160;BME280;27404;52.398;9.646;2024-02-21T06:24:25;101081.84;;;7.14;100.00
8160;BME280;27404;52.398;9.646;2024-02-21T06:26:50;101083.75;;;7.13;100.00
8160;BME280;27404;52.398;9.646;2024-02-21T06:29:15;101079.34;;;7.12;100.00
8160;BME280;27404;52.398;9.646;2024-02-21T06:31:41;101083.13;;;7.18;100.00
8160;BME280;27404;52.398;9.646;2024-02-21T06:34:06;101073.50;;;7.15;100.00
8160;BME280;27404;52.398;9.646;2024-02-21T06:36:32;101080.41;;;7.18;100.00
8160;BME280;27404;52.398;9.646;2024-02-21T06:38:58;101078.72;;;7.10;100.00
8160;BME280;27404;52.398;9.646;2024-02-21T06:41:24;101077.47;;;7.13;100.00
8160;BME280;27404;52.398;9.646;2024-02-21T06:43:49;101084.19;;;7.17;100.00
8160;BME280;27404;52.398;9.646;2024-02-21T06:46:27;101081.66;;;7.15;100.00
8160;BME280;27404;52.398;9.646;2024-02-21T06:49:00;101080.88;;;7.21;100.00
8160;BME280;27404;52.398;9.646;2024-02-21T06:51:26;101074.97;;;7.18;100.00
8160;BME280;27404;52.398;9.646;2024-02-21T06:53:52;101072.72;;;7.21;100.00
8160;BME280;27404;52.398;9.646;2024-02-21T06:56:18;101081.66;;;7.15;100.00
8160;BME280;27404;52.398;9.646;2024-02-21T06:58:44;101082.31;;;7.17;100.00
8160;BME280;27404;52.398;9.646;2024-02-21T07:01:10;101084.81;;;7.19;100.00
8160;BME280;27404;52.398;9.646;2024-02-21T07:03:35;101088.16;;;7.14;100.00
8160;BME280;27404;52.398;9.646;2024-02-21T07:06:01;101084.16;;;7.10;100.00
8160;BME280;27404;52.398;9.646;2024-02-21T07:08:26;101087.28;;;7.07;100.00
8160;BME280;27404;52.398;9.646;2024-02-21T07:10:51;101091.69;;;7.15;100.00
8160;BME280;27404;52.398;9.646;2024-02-21T07:13:17;101088.16;;;7.21;100.00
8160;BME280;27404;52.398;9.646;2024-02-21T07:15:43;101085.84;;;7.18;100.00
8160;BME280;27404;52.398;9.646;2024-02-21T07:18:08;101084.00;;;7.18;100.00
8160;BME280;27404;52.398;9.646;2024-02-21T07:20:34;101078.50;;;7.11;100.00
8160;BME280;27404;52.398;9.646;2024-02-21T07:23:02;101077.69;;;7.18;100.00
8160;BME280;27404;52.398;9.646;2024-02-21T07:25:27;101081.28;;;7.18;100.00
8160;BME280;27404;52.398;9.646;2024-02-21T07:27:53;101082.94;;;7.19;100.00
8160;BME280;27404;52.398;9.646;2024-02-21T07:30:18;101085.03;;;7.24;100.00
8160;BME280;27404;52.398;9.646;2024-02-21T07:32:44;101069.94;;;7.15;100.00
8160;BME280;27404;52.398;9.646;2024-02-21T07:35:09;101076.25;;;7.22;100.00
8160;BME280;27404;52.398;9.646;2024-02-21T07:37:37;101078.75;;;7.17;100.00
8160;BME280;27404;52.398;9.646;2024-02-21T07:40:05;101077.47;;;7.13;100.00
8160;BME280;27404;52.398;9.646;2024-02-21T07:42:31;101082.50;;;7.16;100.00
8160;BME280;27404;52.398;9.646;2024-02-21T07:44:56;101091.91;;;7.13;100.00
8160;BME280;27404;52.398;9.646;2024-02-21T07:47:22;101091.28;;;7.18;100.00
8160;BME280;27404;52.398;9.646;2024-02-21T07:49:47;101084.66;;;7.27;100.00
8160;BME280;27404;52.398;9.646;2024-02-21T07:52:14;101081.28;;;7.25;100.00
8160;BME280;27404;52.398;9.646;2024-02-21T07:54:40;101080.25;;;7.33;100.00
8160;BME280;27404;52.398;9.646;2024-02-21T07:57:07;101079.03;;;7.35;100.00
8160;BME280;27404;52.398;9.646;2024-02-21T07:59:32;101079.03;;;7.42;100.00
8160;BME280;27404;52.398;9.646;2024-02-21T08:01:58;101071.75;;;7.43;100.00
8160;BME280;27404;52.398;9.646;2024-02-21T08:04:23;101076.78;;;7.52;100.00
8160;BME280;27404;52.398;9.646;2024-02-21T08:06:55;101077.81;;;7.51;100.00
8160;BME280;27404;52.398;9.646;2024-02-21T08:09:24;101074.28;;;7.58;100.00
8160;BME280;27404;52.398;9.646;2024-02-21T08:11:49;101065.50;;;7.62;100.00
8160;BME280;27404;52.398;9.646;2024-02-21T08:14:15;101070.94;;;7.62;100.00
8160;BME280;27404;52.398;9.646;2024-02-21T08:16:42;101078.06;;;7.63;100.00
8160;BME280;27404;52.398;9.646;2024-02-21T08:19:08;101070.34;;;7.67;100.00
8160;BME280;27404;52.398;9.646;2024-02-21T08:21:33;101070.97;;;7.76;100.00
8160;BME280;27404;52.398;9.646;2024-02-21T08:23:58;101071.84;;;7.90;100.00
8160;BME280;27404;52.398;9.646;2024-02-21T08:26:24;101065.78;;;7.88;100.00
8160;BME280;27404;52.398;9.646;2024-02-21T08:28:52;101060.13;;;7.96;100.00
8160;BME280;27404;52.398;9.646;2024-02-21T08:31:19;101062.88;;;8.03;100.00
8160;BME280;27404;52.398;9.646;2024-02-21T08:33:45;101057.00;;;8.12;100.00
8160;BME280;27404;52.398;9.646;2024-02-21T08:36:20;101055.97;;;8.07;100.00
8160;BME280;27404;52.398;9.646;2024-02-21T08:38:45;101055.53;;;8.17;100.00
8160;BME280;27404;52.398;9.646;2024-02-21T08:41:11;101052.41;;;8.13;100.00
8160;BME280;27404;52.398;9.646;2024-02-21T08:43:37;101042.97;;;8.22;100.00
8160;BME280;27404;52.398;9.646;2024-02-21T08:46:03;101037.75;;;8.27;100.00
8160;BME280;27404;52.398;9.646;2024-02-21T08:48:28;101033.94;;;8.42;100.00
8160;BME280;27404;52.398;9.646;2024-02-21T08:50:53;101027.88;;;8.47;100.00
8160;BME280;27404;52.398;9.646;2024-02-21T08:53:19;101024.09;;;8.61;100.00
8160;BME280;27404;52.398;9.646;2024-02-21T08:55:45;101014.47;;;8.52;100.00
8160;BME280;27404;52.398;9.646;2024-02-21T08:58:11;101023.22;;;8.67;100.00
8160;BME280;27404;52.398;9.646;2024-02-21T09:00:36;101015.91;;;8.68;100.00
8160;BME280;27404;52.398;9.646;2024-02-21T09:03:02;101017.31;;;8.91;100.00
8160;BME280;27404;52.398;9.646;2024-02-21T09:05:28;101008.28;;;8.90;100.00
8160;BME280;27404;52.398;9.646;2024-02-21T09:07:53;101012.25;;;8.94;100.00
8160;BME280;27404;52.398;9.646;2024-02-21T09:10:19;101008.84;;;8.99;100.00
8160;BME280;27404;52.398;9.646;2024-02-21T09:12:44;101005.69;;;9.09;100.00
8160;BME280;27404;52.398;9.646;2024-02-21T09:15:10;101004.97;;;9.27;100.00
8160;BME280;27404;52.398;9.646;2024-02-21T09:17:35;101011.22;;;9.34;100.00
8160;BME280;27404;52.398;9.646;2024-02-21T09:20:01;101000.06;;;9.36;100.00
8160;BME280;27404;52.398;9.646;2024-02-21T09:22:29;101000.97;;;9.61;100.00
8160;BME280;27404;52.398;9.646;2024-02-21T09:24:54;100996.34;;;9.62;100.00
8160;BME280;27404;52.398;9.646;2024-02-21T09:27:20;100996.34;;;9.62;100.00
8160;BME280;27404;52.398;9.646;2024-02-21T09:29:46;100998.44;;;9.67;100.00
8160;BME280;27404;52.398;9.646;2024-02-21T09:32:11;100989.56;;;9.71;100.00
8160;BME280;27404;52.398;9.646;2024-02-21T09:34:37;100989.91;;;9.82;100.00
8160;BME280;27404;52.398;9.646;2024-02-21T09:37:03;100985.28;;;9.57;100.00
8160;BME280;27404;52.398;9.646;2024-02-21T09:39:29;100988.16;;;9.62;100.00
8160;BME280;27404;52.398;9.646;2024-02-21T09:41:59;100978.53;;;9.59;100.00
8160;BME280;27404;52.398;9.646;2024-02-21T09:44:33;100971.44;;;9.52;100.00
8160;BME280;27404;52.398;9.646;2024-02-21T09:47:07;100974.47;;;9.37;100.00
8160;BME280;27404;52.398;9.646;2024-02-21T09:49:35;100986.19;;;9.44;100.00
8160;BME280;27404;52.398;9.646;2024-02-21T09:52:05;100983.00;;;9.47;100.00
8160;BME280;27404;52.398;9.646;2024-02-21T09:54:33;100977.00;;;9.38;100.00
8160;BME280;27404;52.398;9.646;2024-02-21T09:57:05;100977.97;;;9.51;100.00
8160;BME280;27404;52.398;9.646;2024-02-21T09:59:32;100971.44;;;9.52;100.00
8160;BME280;27404;52.398;9.646;2024-02-21T10:01:58;100976.72;;;9.46;100.00
8160;BME280;27404;52.398;9.646;2024-02-21T10:04:27;100968.78;;;9.70;100.00
8160;BME280;27404;52.398;9.646;2024-02-21T10:06:53;100971.25;;;9.78;100.00
8160;BME280;27404;52.398;9.646;2024-02-21T10:09:26;100971.22;;;9.53;100.00
8160;BME280;27404;52.398;9.646;2024-02-21T10:11:56;100977.16;;;9.75;100.00
8160;BME280;27404;52.398;9.646;2024-02-21T10:14:22;100968.78;;;9.70;100.00
8160;BME280;27404;52.398;9.646;2024-02-21T10:16:49;100956.69;;;9.85;100.00
8160;BME280;27404;52.398;9.646;2024-02-21T10:19:20;100958.00;;;9.82;100.00
8160;BME280;27404;52.398;9.646;2024-02-21T10:22:03;100956.78;;;9.78;100.00
8160;BME280;27404;52.398;9.646;2024-02-21T10:24:29;100951.22;;;10.10;100.00
8160;BME280;27404;52.398;9.646;2024-02-21T10:29:27;100941.81;;;10.06;100.00
8160;BME280;27404;52.398;9.646;2024-02-21T10:32:12;100940.97;;;10.05;100.00
8160;BME280;27404;52.398;9.646;2024-02-21T10:34:39;100924.31;;;10.14;100.00
8160;BME280;27404;52.398;9.646;2024-02-21T10:37:06;100923.28;;;10.08;100.00
8160;BME280;27404;52.398;9.646;2024-02-21T10:39:33;100905.41;;;10.12;100.00
8160;BME280;27404;52.398;9.646;2024-02-21T10:42:03;100912.16;;;10.28;100.00
8160;BME280;27404;52.398;9.646;2024-02-21T10:44:32;100900.38;;;10.09;100.00
8160;BME280;27404;52.398;9.646;2024-02-21T10:46:58;100903.13;;;10.09;100.00
8160;BME280;27404;52.398;9.646;2024-02-21T10:49:24;100900.34;;;10.16;100.00
8160;BME280;27404;52.398;9.646;2024-02-21T10:51:55;100904.25;;;10.01;100.00
8160;BME280;27404;52.398;9.646;2024-02-21T10:54:34;100896.63;;;9.85;100.00
8160;BME280;27404;52.398;9.646;2024-02-21T10:57:04;100898.94;;;10.06;100.00
8160;BME280;27404;52.398;9.646;2024-02-21T10:59:31;100897.16;;;10.19;100.00
8160;BME280;27404;52.398;9.646;2024-02-21T11:01:57;100889.56;;;10.21;100.00
8160;BME280;27404;52.398;9.646;2024-02-21T11:04:23;100895.59;;;10.04;100.00
8160;BME280;27404;52.398;9.646;2024-02-21T11:06:50;100875.81;;;10.09;100.00
8160;BME280;27404;52.398;9.646;2024-02-21T11:09:16;100879.91;;;10.37;100.00
8160;BME280;27404;52.398;9.646;2024-02-21T11:11:43;100871.09;;;10.35;100.00
8160;BME280;27404;52.398;9.646;2024-02-21T11:14:20;100864.75;;;10.41;100.00
8160;BME280;27404;52.398;9.646;2024-02-21T11:16:46;100864.72;;;10.22;100.00
8160;BME280;27404;52.398;9.646;2024-02-21T11:19:22;100855.78;;;10.34;100.00
8160;BME280;27404;52.398;9.646;2024-02-21T11:21:49;100849.78;;;10.25;100.00
8160;BME280;27404;52.398;9.646;2024-02-21T11:24:26;100851.13;;;10.34;100.00
8160;BME280;27404;52.398;9.646;2024-02-21T11:26:52;100838.31;;;10.54;100.00
8160;BME280;27404;52.398;9.646;2024-02-21T11:29:23;100850.19;;;10.47;100.00
8160;BME280;27404;52.398;9.646;2024-02-21T11:31:50;100838.53;;;10.33;100.00
8160;BME280;27404;52.398;9.646;2024-02-21T11:34:18;100843.50;;;10.43;100.00
8160;BME280;27404;52.398;9.646;2024-02-21T11:36:51;100833.06;;;10.33;100.00
8160;BME280;27404;52.398;9.646;2024-02-21T11:39:24;100835.91;;;10.45;100.00
8160;BME280;27404;52.398;9.646;2024-02-21T11:42:06;100817.69;;;10.39;100.00
8160;BME280;27404;52.398;9.646;2024-02-21T11:44:36;100820.66;;;10.19;100.00
8160;BME280;27404;52.398;9.646;2024-02-21T11:47:08;100824.72;;;10.28;100.00
8160;BME280;27404;52.398;9.646;2024-02-21T11:49:38;100811.81;;;10.35;100.00
8160;BME280;27404;52.398;9.646;2024-02-21T11:52:05;100808.44;;;10.40;100.00
8160;BME280;27404;52.398;9.646;2024-02-21T11:54:31;100801.28;;;10.58;100.00
8160;BME280;27404;52.398;9.646;2024-02-21T11:56:57;100796.97;;;10.62;100.00
8160;BME280;27404;52.398;9.646;2024-02-21T11:59:22;100788.53;;;10.51;100.00
8160;BME280;27404;52.398;9.646;2024-02-21T12:01:48;100788.22;;;10.60;100.00
8160;BME280;27404;52.398;9.646;2024-02-21T12:04:15;100777.19;;;10.78;100.00
8160;BME280;27404;52.398;9.646;2024-02-21T12:06:44;100772.44;;;10.74;100.00
8160;BME280;27404;52.398;9.646;2024-02-21T12:09:14;100761.97;;;10.71;100.00
8160;BME280;27404;52.398;9.646;2024-02-21T12:11:39;100752.91;;;10.70;100.00
8160;BME280;27404;52.398;9.646;2024-02-21T12:14:05;100753.22;;;10.92;100.00
8160;BME280;27404;52.398;9.646;2024-02-21T12:16:31;100759.16;;;10.89;100.00
8160;BME280;27404;52.398;9.646;2024-02-21T12:18:58;100749.13;;;10.41;100.00
8160;BME280;27404;52.398;9.646;2024-02-21T12:21:25;100749.94;;;10.60;100.00
8160;BME280;27404;52.398;9.646;2024-02-21T12:23:51;100736.88;;;10.74;100.00
8160;BME280;27404;52.398;9.646;2024-02-21T12:26:16;100737.69;;;10.62;100.00
8160;BME280;27404;52.398;9.646;2024-02-21T12:28:42;100751.94;;;10.64;100.00
8160;BME280;27404;52.398;9.646;2024-02-21T12:31:07;100746.78;;;10.44;100.00
8160;BME280;27404;52.398;9.646;2024-02-21T12:33:32;100732.97;;;10.39;100.00
8160;BME280;27404;52.398;9.646;2024-02-21T12:35:58;100737.53;;;10.45;100.00
8160;BME280;27404;52.398;9.646;2024-02-21T12:38:23;100728.28;;;10.58;100.00
8160;BME280;27404;52.398;9.646;2024-02-21T12:40:49;100728.31;;;10.70;100.00
8160;BME280;27404;52.398;9.646;2024-02-21T12:43:15;100728.09;;;10.84;100.00
8160;BME280;27404;52.398;9.646;2024-02-21T12:45:40;100734.09;;;10.62;100.00
8160;BME280;27404;52.398;9.646;2024-02-21T12:48:06;100725.56;;;10.70;100.00
8160;BME280;27404;52.398;9.646;2024-02-21T12:50:31;100733.88;;;10.63;100.00
8160;BME280;27404;52.398;9.646;2024-02-21T12:52:57;100730.53;;;10.49;100.00
8160;BME280;27404;52.398;9.646;2024-02-21T12:55:23;100716.00;;;10.49;100.00